Time;durP1;ratioP1;P1;durP2;ratioP2;P2;SDS_P1;SDS_P2;PMS_P1;PMS_P2;Temp;Humidity;BMP_temperature;BMP_pressure;BME280_temperature;BME280_humidity;BME280_pressure;Samples;Min_cycle;Max_cycle;Signal;HPM_P1;HPM_P2
2023/08/21 00:02:10;;;;;;;22.10;20.00;;;;;;;22.84;94.55;101088.84;105482;1256;83089;-67
2023/08/21 00:04:37;;;;;;;22.10;19.90;;;;;;;22.84;94.54;101092.97;105443;1254;72629;-67
2023/08/21 00:07:06;;;;;;;22.10;19.90;;;;;;;22.83;94.64;101088.40;105444;1256;69112;-67
2023/08/21 00:09:33;;;;;;;22.80;20.60;;;;;;;22.82;94.75;101090.39;105477;1254;69156;-67
2023/08/21 00:12:00;;;;;;;21.70;19.70;;;;;;;22.84;94.95;101083.70;105515;1254;74718;-67
2023/08/21 00:14:27;;;;;;;22.60;20.20;;;;;;;22.86;95.02;101080.14;105514;1256;82627;-67
2023/08/21 00:16:53;;;;;;;22.40;20.30;;;;;;;22.88;95.16;101080.86;105488;1254;72682;-67
2023/08/21 00:19:21;;;;;;;22.00;19.90;;;;;;;22.90;95.20;101085.16;105478;1254;69215;-67
2023/08/21 00:21:47;;;;;;;22.00;19.60;;;;;;;22.92;95.09;101081.45;105497;1254;69102;-63
2023/08/21 00:24:14;;;;;;;22.00;20.00;;;;;;;22.92;95.15;101084.27;105483;1254;74984;-64
2023/08/21 00:26:41;;;;;;;21.50;19.30;;;;;;;22.93;95.15;101090.83;105506;1253;83101;-63
2023/08/21 00:29:08;;;;;;;21.60;19.50;;;;;;;22.94;95.11;101096.79;105478;1259;73567;-67
2023/08/21 00:31:35;;;;;;;22.90;20.30;;;;;;;22.95;95.30;101091.59;105446;1254;69078;-67
2023/08/21 00:34:03;;;;;;;29.70;22.40;;;;;;;22.95;95.58;101083.56;105527;1253;69198;-68
2023/08/21 00:36:30;;;;;;;29.50;22.40;;;;;;;22.92;95.80;101080.91;105477;1256;73955;-69
2023/08/21 00:38:57;;;;;;;24.60;21.70;;;;;;;22.87;96.04;101083.83;105469;1254;82407;-70
2023/08/21 00:41:24;;;;;;;23.40;20.80;;;;;;;22.79;95.93;101088.91;105432;1258;73555;-71
2023/08/21 00:43:51;;;;;;;22.80;20.40;;;;;;;22.67;95.83;101087.09;105555;1256;69182;-72
2023/08/21 00:46:18;;;;;;;23.50;21.10;;;;;;;22.60;96.35;101085.17;105515;1254;69160;-72
2023/08/21 00:48:45;;;;;;;21.60;19.50;;;;;;;22.55;96.89;101078.99;105562;1254;75034;-72
2023/08/21 00:51:14;;;;;;;23.60;21.20;;;;;;;22.47;97.06;101074.02;105484;1254;83900;-71
2023/08/21 00:53:41;;;;;;;31.80;21.10;;;;;;;22.40;97.23;101073.69;105511;1253;72685;-70
2023/08/21 00:56:09;;;;;;;22.40;20.20;;;;;;;22.33;97.61;101070.14;105347;1259;69169;-71
2023/08/21 00:58:38;;;;;;;22.50;20.30;;;;;;;22.29;98.13;101073.98;105490;1253;69276;-71
2023/08/21 01:01:05;;;;;;;24.10;19.90;;;;;;;22.26;98.55;101073.83;105531;1254;74973;-71
2023/08/21 01:03:32;;;;;;;23.00;20.80;;;;;;;22.22;98.87;101081.27;105508;1257;83575;-71
2023/08/21 01:05:59;;;;;;;22.90;20.60;;;;;;;22.19;99.10;101092.73;105509;1254;73809;-71
2023/08/21 01:08:47;;;;;;;22.30;19.90;;;;;;;22.13;98.45;101113.27;105516;1254;69087;-71
2023/08/21 01:11:19;;;;;;;24.50;19.10;;;;;;;22.00;98.44;101152.48;105483;1256;69127;-70
2023/08/21 01:14:08;;;;;;;24.50;19.00;;;;;;;21.92;98.46;101178.36;105494;1254;73823;-68
2023/08/21 01:16:37;;;;;;;25.30;19.70;;;;;;;21.78;98.27;101169.05;105485;1257;82221;-68
2023/08/21 01:19:09;;;;;;;26.10;19.40;;;;;;;21.49;98.37;101150.47;105497;1254;73972;-70
2023/08/21 01:21:36;;;;;;;26.50;20.70;;;;;;;21.28;99.21;101158.64;105472;1254;69158;-70
2023/08/21 01:24:03;;;;;;;22.00;19.60;;;;;;;21.12;99.57;101164.94;105456;1252;69115;-71
2023/08/21 01:26:30;;;;;;;23.50;19.30;;;;;;;21.01;100.00;101163.21;105459;1254;73815;-71
2023/08/21 01:28:57;;;;;;;21.90;19.60;;;;;;;20.87;100.00;101160.80;105461;1254;83798;-72
2023/08/21 01:31:27;;;;;;;21.50;19.30;;;;;;;20.81;100.00;101159.80;105478;1254;72491;-72
2023/08/21 01:33:59;;;;;;;19.60;17.30;;;;;;;20.75;100.00;101148.13;105479;1254;69139;-71
2023/08/21 01:36:27;;;;;;;21.00;17.40;;;;;;;20.66;100.00;101132.39;105480;1256;69080;-70
2023/08/21 01:38:54;;;;;;;17.50;15.70;;;;;;;20.57;100.00;101120.91;105441;1254;74826;-71
2023/08/21 01:41:23;;;;;;;17.90;16.00;;;;;;;20.48;100.00;101118.10;105442;1254;81487;-71
2023/08/21 01:43:50;;;;;;;17.00;15.30;;;;;;;20.40;100.00;101117.02;105473;1258;72071;-70
2023/08/21 01:46:18;;;;;;;18.60;16.70;;;;;;;20.34;100.00;101119.07;105433;1254;69131;-71
2023/08/21 01:48:45;;;;;;;19.20;16.10;;;;;;;20.28;100.00;101128.66;105529;1256;69121;-71
2023/08/21 01:51:11;;;;;;;17.50;15.40;;;;;;;20.24;100.00;101130.00;105479;1254;73736;-71
2023/08/21 01:53:38;;;;;;;17.20;15.40;;;;;;;20.21;100.00;101134.29;105476;1259;83634;-70
2023/08/21 01:56:05;;;;;;;15.90;14.30;;;;;;;20.18;100.00;101149.02;105473;1254;72658;-71
2023/08/21 01:58:33;;;;;;;19.80;16.20;;;;;;;20.16;100.00;101154.68;105467;1252;69084;-71
2023/08/21 02:01:00;;;;;;;19.20;14.50;;;;;;;20.15;100.00;101155.43;105572;1259;69180;-71
2023/08/21 02:03:27;;;;;;;15.60;13.50;;;;;;;20.14;100.00;101156.23;105488;1254;74801;-71
2023/08/21 02:05:57;;;;;;;15.10;12.40;;;;;;;20.07;100.00;101153.30;105509;1258;83522;-71
2023/08/21 02:08:30;;;;;;;24.60;18.60;;;;;;;19.99;100.00;101150.23;105464;1254;72699;-71
2023/08/21 02:10:57;;;;;;;16.50;13.60;;;;;;;19.90;100.00;101149.24;105505;1254;69203;-71
2023/08/21 02:13:24;;;;;;;12.00;10.80;;;;;;;19.83;100.00;101152.52;105501;1257;69138;-71
2023/08/21 02:15:51;;;;;;;11.00;9.60;;;;;;;19.77;100.00;101152.57;105467;1254;74838;-71
2023/08/21 02:18:19;;;;;;;10.70;9.60;;;;;;;19.68;100.00;101148.38;105498;1256;82402;-71
2023/08/21 02:20:48;;;;;;;11.50;9.90;;;;;;;19.59;100.00;101150.09;105449;1254;72712;-71
2023/08/21 02:23:15;;;;;;;11.30;9.70;;;;;;;19.56;100.00;101149.42;105540;1257;69120;-70
2023/08/21 02:25:42;;;;;;;11.80;8.60;;;;;;;19.54;100.00;101155.18;105490;1259;69177;-70
2023/08/21 02:28:10;;;;;;;10.30;8.50;;;;;;;19.49;100.00;101162.98;105497;1254;73955;-70
2023/08/21 02:30:43;;;;;;;12.10;8.30;;;;;;;19.47;100.00;101161.89;105550;1256;83606;-71
2023/08/21 02:33:10;;;;;;;10.00;8.70;;;;;;;19.44;100.00;101162.06;105482;1254;72638;-71
2023/08/21 02:35:38;;;;;;;11.30;8.00;;;;;;;19.40;100.00;101168.33;105551;1257;69067;-70
2023/08/21 02:38:05;;;;;;;8.40;7.40;;;;;;;19.34;100.00;101165.46;105458;1254;69173;-69
2023/08/21 02:40:35;;;;;;;;;;;;;;;19.30;100.00;101171.77;105492;1254;75273;-69
2023/08/21 02:43:03;;;;;;;7.10;6.30;;;;;;;19.25;100.00;101173.84;105475;1256;83928;-69
2023/08/21 02:45:30;;;;;;;10.10;6.10;;;;;;;19.17;100.00;101173.25;105472;1256;73706;-69
2023/08/21 02:47:57;;;;;;;8.80;6.30;;;;;;;19.08;100.00;101178.41;105500;1254;69205;-69
2023/08/21 02:50:24;;;;;;;6.90;5.70;;;;;;;19.02;100.00;101181.61;105476;1259;69590;-69
2023/08/21 02:52:51;;;;;;;9.00;5.90;;;;;;;18.92;100.00;101181.98;105442;1254;73856;-69
2023/08/21 02:55:18;;;;;;;6.60;5.30;;;;;;;18.90;100.00;101185.50;105461;1254;82435;-69
2023/08/21 02:57:45;;;;;;;6.60;5.30;;;;;;;18.85;100.00;101176.23;105556;1256;73763;-69
2023/08/21 03:00:12;;;;;;;5.70;5.10;;;;;;;18.84;100.00;101173.14;105456;1256;69234;-68
2023/08/21 03:02:42;;;;;;;6.50;5.70;;;;;;;18.81;100.00;101171.36;105604;1256;69201;-69
2023/08/21 03:05:11;;;;;;;8.00;6.00;;;;;;;18.79;100.00;101164.91;105523;1253;74822;-69
2023/08/21 03:07:39;;;;;;;7.20;6.00;;;;;;;18.77;100.00;101157.98;105570;1254;82476;-68
2023/08/21 03:10:07;;;;;;;9.90;6.00;;;;;;;18.73;100.00;101155.67;105532;1256;73434;-69
2023/08/21 03:12:34;;;;;;;7.10;5.90;;;;;;;18.68;100.00;101149.73;105493;1254;69074;-68
2023/08/21 03:15:02;;;;;;;8.00;6.40;;;;;;;18.64;100.00;101158.66;105507;1256;69185;-69
2023/08/21 03:17:29;;;;;;;9.70;7.10;;;;;;;18.64;100.00;101162.90;105519;1254;74721;-68
2023/08/21 03:19:56;;;;;;;7.40;6.60;;;;;;;18.62;100.00;101163.74;105430;1254;83324;-68
2023/08/21 03:22:23;;;;;;;8.90;6.70;;;;;;;18.63;100.00;101170.79;105436;1255;72864;-68
2023/08/21 03:24:50;;;;;;;8.50;7.40;;;;;;;18.61;100.00;101168.77;105434;1259;69372;-69
2023/08/21 03:27:18;;;;;;;8.30;6.70;;;;;;;18.62;100.00;101167.49;105536;1256;69246;-68
2023/08/21 03:29:48;;;;;;;9.50;7.30;;;;;;;18.65;100.00;101172.11;105586;1257;75099;-68
2023/08/21 03:32:16;;;;;;;;;;;;;;;18.67;100.00;101171.23;105541;1256;83354;-69
2023/08/21 03:34:43;;;;;;;12.90;7.00;;;;;;;18.69;100.00;101167.98;105462;1254;73833;-69
2023/08/21 03:37:10;;;;;;;8.80;7.40;;;;;;;18.71;100.00;101172.23;105633;1257;69075;-68
2023/08/21 03:39:38;;;;;;;10.20;7.20;;;;;;;18.73;100.00;101168.61;105447;1259;69157;-68
2023/08/21 03:42:07;;;;;;;9.50;8.00;;;;;;;18.73;100.00;101160.97;105520;1256;73920;-69
2023/08/21 03:44:34;;;;;;;9.60;7.30;;;;;;;18.73;100.00;101157.09;105471;1254;82918;-68
2023/08/21 03:47:01;;;;;;;10.00;8.20;;;;;;;18.71;100.00;101154.02;105480;1256;73810;-69
2023/08/21 03:49:32;;;;;;;9.20;6.70;;;;;;;18.71;100.00;101152.42;105465;1255;69170;-69
2023/08/21 03:52:00;;;;;;;9.10;7.50;;;;;;;18.70;100.00;101161.35;105544;1254;69170;-69
2023/08/21 03:54:28;;;;;;;8.20;7.20;;;;;;;18.71;100.00;101171.74;105487;1254;74835;-69
2023/08/21 03:56:55;;;;;;;8.50;7.30;;;;;;;18.72;100.00;101175.53;105442;1258;83234;-69
2023/08/21 03:59:23;;;;;;;12.30;8.10;;;;;;;18.77;100.00;101172.83;105445;1257;73718;-69
2023/08/21 04:01:50;;;;;;;8.30;7.40;;;;;;;18.79;100.00;101177.84;105472;1254;69175;-69
2023/08/21 04:04:17;;;;;;;8.60;7.70;;;;;;;18.81;100.00;101186.60;105482;1258;69195;-69
2023/08/21 04:06:44;;;;;;;8.90;7.50;;;;;;;18.81;100.00;101186.92;105551;1256;73754;-69
2023/08/21 04:09:12;;;;;;;10.00;7.50;;;;;;;18.81;100.00;101185.35;105545;1254;82557;-69
2023/08/21 04:11:39;;;;;;;10.40;7.40;;;;;;;18.83;100.00;101186.80;105455;1256;73646;-68
2023/08/21 04:14:06;;;;;;;7.70;6.90;;;;;;;18.83;100.00;101185.42;105455;1258;69124;-69
2023/08/21 04:16:32;;;;;;;11.00;6.90;;;;;;;18.83;100.00;101182.92;105471;1256;69151;-69
2023/08/21 04:18:59;;;;;;;8.10;6.60;;;;;;;18.84;100.00;101182.52;105479;1258;75047;-69
2023/08/21 04:21:26;;;;;;;7.70;6.00;;;;;;;18.86;100.00;101185.39;105522;1254;82408;-69
2023/08/21 04:23:53;;;;;;;9.90;6.90;;;;;;;18.80;100.00;101188.92;105433;1256;73850;-69
2023/08/21 04:26:20;;;;;;;8.00;6.60;;;;;;;18.77;100.00;101196.38;105505;1256;69278;-65
2023/08/21 04:28:47;;;;;;;8.20;6.10;;;;;;;18.76;100.00;101199.27;105479;1253;69122;-70
2023/08/21 04:31:14;;;;;;;9.50;6.20;;;;;;;18.76;100.00;101199.25;105575;1266;73777;-71
2023/08/21 04:33:41;;;;;;;7.70;6.40;;;;;;;18.79;100.00;101192.39;105539;1257;83186;-69
2023/08/21 04:36:15;;;;;;;7.70;6.40;;;;;;;18.79;100.00;101190.62;105544;1254;72882;-67
2023/08/21 04:38:43;;;;;;;8.00;6.70;;;;;;;18.81;100.00;101186.78;105495;1258;69122;-68
2023/08/21 04:41:11;;;;;;;6.80;6.10;;;;;;;18.80;100.00;101184.67;105474;1255;69270;-68
2023/08/21 04:43:41;;;;;;;8.00;6.30;;;;;;;18.80;100.00;101179.92;105499;1254;73679;-68
2023/08/21 04:46:08;;;;;;;6.60;5.60;;;;;;;18.82;100.00;101181.27;105477;1257;82580;-68
2023/08/21 04:48:36;;;;;;;7.10;5.60;;;;;;;18.82;100.00;101194.70;105518;1258;73965;-68
2023/08/21 04:51:03;;;;;;;8.10;5.10;;;;;;;18.80;100.00;101194.26;105473;1252;69179;-68
2023/08/21 04:53:30;;;;;;;10.40;5.70;;;;;;;18.82;100.00;101183.48;105558;1254;69183;-68
2023/08/21 04:56:01;;;;;;;8.50;5.40;;;;;;;18.84;100.00;101176.48;105529;1256;74807;-68
2023/08/21 04:58:29;;;;;;;7.40;5.50;;;;;;;18.84;100.00;101170.11;105518;1257;83536;-67
2023/08/21 05:00:56;;;;;;;8.80;6.10;;;;;;;18.92;100.00;101166.23;105506;1260;72687;-69
2023/08/21 05:03:23;;;;;;;8.70;5.20;;;;;;;19.03;100.00;101170.56;105471;1259;69115;-62
2023/08/21 05:05:54;;;;;;;6.40;5.40;;;;;;;19.02;100.00;101169.44;105672;1254;69243;-61
2023/08/21 05:08:23;;;;;;;7.30;5.40;;;;;;;18.98;100.00;101171.06;105675;1257;74962;-61
2023/08/21 05:11:00;;;;;;;7.00;5.20;;;;;;;18.99;100.00;101172.40;105775;1257;83298;-62
2023/08/21 05:13:30;;;;;;;7.20;5.40;;;;;;;19.01;100.00;101176.73;105626;1257;72615;-61
2023/08/21 05:15:58;;;;;;;8.80;5.60;;;;;;;19.00;100.00;101182.80;106011;1257;69058;-61
2023/08/21 05:18:28;;;;;;;7.20;5.50;;;;;;;19.04;100.00;101185.91;105636;1257;69182;-60
2023/08/21 05:20:56;;;;;;;6.40;5.30;;;;;;;19.14;100.00;101188.52;105773;1255;73760;-60
2023/08/21 05:23:23;;;;;;;6.60;5.50;;;;;;;19.19;100.00;101189.98;105804;1257;83506;-61
2023/08/21 05:25:52;;;;;;;9.90;5.30;;;;;;;19.25;100.00;101183.27;105509;1256;72679;-61
2023/08/21 05:28:19;;;;;;;5.80;4.80;;;;;;;19.29;100.00;101181.55;105653;1254;69163;-61
2023/08/21 05:30:48;;;;;;;4.50;3.80;;;;;;;19.31;100.00;101180.73;105541;1257;69301;-63
2023/08/21 05:33:15;;;;;;;5.70;4.30;;;;;;;19.31;100.00;101185.34;105757;1257;74836;-62
2023/08/21 05:35:44;;;;;;;10.50;5.20;;;;;;;19.31;100.00;101183.23;105661;1257;82260;-62
2023/08/21 05:38:11;;;;;;;5.90;5.20;;;;;;;19.30;100.00;101183.98;105762;1260;73792;-61
2023/08/21 05:40:41;;;;;;;6.50;4.80;;;;;;;19.30;100.00;101188.39;105729;1253;69077;-62
2023/08/21 05:43:08;;;;;;;7.90;4.30;;;;;;;19.28;100.00;101185.34;105824;1255;69144;-61
2023/08/21 05:45:36;;;;;;;6.80;4.30;;;;;;;19.27;100.00;101190.03;105800;1255;75027;-62
2023/08/21 05:48:03;;;;;;;8.30;5.20;;;;;;;19.32;100.00;101193.99;105601;1256;83411;-62
2023/08/21 05:50:31;;;;;;;7.30;4.70;;;;;;;19.40;100.00;101193.14;105847;1257;73925;-60
2023/08/21 05:52:58;;;;;;;8.60;4.80;;;;;;;19.47;100.00;101191.44;105646;1256;69211;-62
2023/08/21 05:55:25;;;;;;;7.60;4.70;;;;;;;19.56;100.00;101182.92;105615;1257;69180;-63
2023/08/21 05:57:52;;;;;;;7.70;4.20;;;;;;;19.67;100.00;101184.93;105861;1255;75233;-61
2023/08/21 06:00:19;;;;;;;4.90;4.10;;;;;;;19.71;100.00;101189.99;105607;1257;83244;-63
2023/08/21 06:02:46;;;;;;;6.50;4.90;;;;;;;19.75;100.00;101197.39;105667;1254;73806;-63
2023/08/21 06:05:27;;;;;;;5.30;3.90;;;;;;;19.79;100.00;101205.29;105640;1254;69160;-64
2023/08/21 06:07:55;;;;;;;4.60;3.80;;;;;;;19.85;100.00;101203.30;105774;1256;69371;-63
2023/08/21 06:10:22;;;;;;;5.30;3.90;;;;;;;19.94;100.00;101199.35;105570;1255;74920;-63
2023/08/21 06:12:51;;;;;;;8.10;4.10;;;;;;;20.02;100.00;101200.30;105591;1257;82461;-63
2023/08/21 06:15:18;;;;;;;7.40;4.40;;;;;;;20.12;100.00;101203.39;105518;1258;73476;-63
2023/08/21 06:17:45;;;;;;;6.40;3.70;;;;;;;20.26;100.00;101207.77;105617;1252;69149;-63
2023/08/21 06:20:13;;;;;;;5.90;3.90;;;;;;;20.37;100.00;101213.10;105720;1256;69195;-63
2023/08/21 06:22:40;;;;;;;6.20;3.60;;;;;;;20.43;100.00;101214.62;105783;1257;73779;-63
2023/08/21 06:25:08;;;;;;;5.60;3.70;;;;;;;20.50;100.00;101218.66;105673;1260;83262;-62
2023/08/21 06:27:35;;;;;;;4.40;3.20;;;;;;;20.60;100.00;101216.95;105579;1260;73681;-62
2023/08/21 06:30:19;;;;;;;6.50;3.50;;;;;;;20.66;100.00;101210.13;105623;1256;69131;-62
2023/08/21 06:32:46;;;;;;;7.70;3.60;;;;;;;20.73;100.00;101210.95;105505;1257;69011;-62
2023/08/21 06:35:14;;;;;;;9.20;3.70;;;;;;;20.78;100.00;101218.73;105723;1254;75019;-64
2023/08/21 06:37:42;;;;;;;7.00;3.70;;;;;;;20.84;100.00;101222.66;105761;1256;82433;-62
2023/08/21 06:40:09;;;;;;;5.70;3.20;;;;;;;20.92;100.00;101231.31;105686;1257;73754;-62
2023/08/21 06:42:37;;;;;;;5.70;3.40;;;;;;;21.01;100.00;101234.11;105894;1257;69178;-62
2023/08/21 06:45:05;;;;;;;6.50;3.50;;;;;;;21.06;100.00;101230.05;105804;1255;69057;-63
2023/08/21 06:47:32;;;;;;;5.30;3.50;;;;;;;21.07;100.00;101229.96;105682;1254;75044;-62
2023/08/21 06:50:00;;;;;;;4.30;3.60;;;;;;;21.10;100.00;101226.94;105572;1257;82471;-63
2023/08/21 06:52:27;;;;;;;5.70;3.40;;;;;;;21.11;100.00;101224.36;105680;1257;73868;-63
2023/08/21 06:54:54;;;;;;;5.50;3.70;;;;;;;21.10;100.00;101219.59;105634;1256;69221;-61
2023/08/21 06:57:22;;;;;;;6.10;3.60;;;;;;;21.07;100.00;101221.40;105535;1258;69214;-67
2023/08/21 06:59:48;;;;;;;6.80;3.40;;;;;;;21.05;100.00;101225.63;105512;1257;73578;-65
2023/08/21 07:02:15;;;;;;;5.30;3.40;;;;;;;21.04;100.00;101223.43;105604;1258;83505;-64
2023/08/21 07:04:42;;;;;;;4.50;3.40;;;;;;;21.02;100.00;101225.30;105604;1255;72661;-65
2023/08/21 07:07:09;;;;;;;6.30;3.90;;;;;;;21.02;100.00;101220.14;105566;1257;69108;-64
2023/08/21 07:09:36;;;;;;;5.00;3.80;;;;;;;21.03;100.00;101216.35;105675;1256;69189;-64
2023/08/21 07:12:04;;;;;;;4.40;3.50;;;;;;;21.05;100.00;101214.45;109224;1254;74744;-64
2023/08/21 07:14:30;;;;;;;5.30;3.80;;;;;;;21.14;100.00;101210.30;109265;1254;82532;-64
2023/08/21 07:16:57;;;;;;;5.20;3.90;;;;;;;21.23;100.00;101209.17;109265;1253;73810;-64
2023/08/21 07:19:24;;;;;;;5.90;3.40;;;;;;;21.36;100.00;101209.52;109245;1252;67452;-64
2023/08/21 07:21:51;;;;;;;5.20;3.90;;;;;;;21.54;100.00;101212.14;109298;1254;66994;-65
2023/08/21 07:24:18;;;;;;;4.70;3.60;;;;;;;21.70;100.00;101212.65;109288;1255;74753;-64
2023/08/21 07:26:45;;;;;;;5.10;3.50;;;;;;;21.78;100.00;101220.40;108136;1254;82310;-64
2023/08/21 07:29:11;;;;;;;6.60;3.80;;;;;;;21.82;100.00;101219.96;105614;1252;72714;-64
2023/08/21 07:31:38;;;;;;;6.80;3.20;;;;;;;21.81;99.78;101224.48;105668;1254;69064;-62
2023/08/21 07:34:06;;;;;;;4.30;3.60;;;;;;;21.82;99.62;101229.40;105715;1257;69147;-60
2023/08/21 07:36:33;;;;;;;5.10;4.00;;;;;;;21.87;99.38;101228.68;105643;1254;72820;-62
2023/08/21 07:39:00;;;;;;;7.70;4.10;;;;;;;21.93;99.40;101230.02;105849;1254;82324;-62
2023/08/21 07:41:27;;;;;;;6.20;3.70;;;;;;;22.01;99.35;101233.55;105579;1253;73750;-62
2023/08/21 07:43:54;;;;;;;5.80;4.00;;;;;;;22.05;98.99;101236.80;105667;1264;69130;-62
2023/08/21 07:46:20;;;;;;;7.40;4.20;;;;;;;22.11;98.95;101235.34;105662;1256;69224;-61
2023/08/21 07:48:49;;;;;;;5.90;4.60;;;;;;;22.20;98.59;101236.13;105765;1254;75004;-63
2023/08/21 07:51:16;;;;;;;4.70;3.50;;;;;;;22.25;97.98;101240.95;105637;1258;82145;-64
2023/08/21 07:53:43;;;;;;;7.20;4.00;;;;;;;22.25;97.05;101238.41;105589;1254;72829;-63
2023/08/21 07:56:10;;;;;;;8.40;4.10;;;;;;;22.26;97.10;101239.23;105458;1251;232622;-62
2023/08/21 07:58:38;;;;;;;6.60;4.80;;;;;;;22.34;97.39;101239.40;105644;1256;69117;-63
2023/08/21 08:01:05;;;;;;;4.70;3.70;;;;;;;22.42;96.93;101239.34;105576;1257;74153;-62
2023/08/21 08:03:32;;;;;;;4.10;3.10;;;;;;;22.49;96.68;101235.23;105587;1256;83484;-65
2023/08/21 08:05:59;;;;;;;7.20;3.20;;;;;;;22.59;96.60;101235.09;105587;1257;73574;-65
2023/08/21 08:08:27;;;;;;;5.40;3.50;;;;;;;22.71;96.73;101232.03;105620;1257;69217;-65
2023/08/21 08:10:53;;;;;;;5.20;3.20;;;;;;;22.82;96.16;101234.38;105541;1254;69423;-65
2023/08/21 08:13:20;;;;;;;3.80;2.90;;;;;;;22.90;95.97;101234.10;105562;1254;74826;-65
2023/08/21 08:15:47;;;;;;;5.00;3.00;;;;;;;23.03;95.60;101233.56;105642;1256;83080;-64
2023/08/21 08:18:15;;;;;;;3.90;3.00;;;;;;;23.16;94.69;101233.29;105587;1251;73880;-63
2023/08/21 08:20:41;;;;;;;4.00;2.80;;;;;;;23.26;93.94;101229.30;105607;1257;69075;-64
2023/08/21 08:23:08;;;;;;;6.00;2.90;;;;;;;23.34;93.51;101227.92;105525;1259;69184;-64
2023/08/21 08:25:35;;;;;;;7.40;3.00;;;;;;;23.47;93.09;101227.86;105573;1257;74881;-64
2023/08/21 08:28:03;;;;;;;4.60;3.00;;;;;;;23.57;92.39;101225.11;105563;1254;83424;-64
2023/08/21 08:30:30;;;;;;;6.70;3.10;;;;;;;23.74;91.74;101225.38;105617;1254;74205;-64
2023/08/21 08:32:57;;;;;;;5.90;2.80;;;;;;;23.92;91.18;101226.13;105607;1254;69144;-64
2023/08/21 08:35:24;;;;;;;5.30;2.70;;;;;;;24.07;90.29;101230.42;105610;1255;69189;-64
2023/08/21 08:37:51;;;;;;;6.50;2.60;;;;;;;24.22;89.48;101229.73;105659;1254;75239;-64
2023/08/21 08:40:18;;;;;;;4.70;2.60;;;;;;;24.36;88.99;101228.23;105539;1255;82356;-62
2023/08/21 08:42:45;;;;;;;5.20;3.00;;;;;;;24.51;88.66;101231.17;105570;1252;72532;-61
2023/08/21 08:45:14;;;;;;;4.50;3.20;;;;;;;24.62;87.94;101232.40;105559;1254;69198;-61
2023/08/21 08:47:41;;;;;;;5.00;3.10;;;;;;;24.72;87.25;101235.09;105621;1254;69656;-60
2023/08/21 08:50:09;;;;;;;5.40;3.60;;;;;;;24.86;86.54;101241.11;105587;1255;73867;-60
2023/08/21 08:52:38;;;;;;;4.80;3.50;;;;;;;24.89;85.34;101244.02;105620;1256;83268;-60
2023/08/21 08:55:07;;;;;;;3.50;3.20;;;;;;;24.90;84.36;101246.64;105604;1254;72614;-59
2023/08/21 08:57:34;;;;;;;4.80;3.50;;;;;;;24.96;84.06;101245.25;105641;1257;69204;-60
2023/08/21 09:00:03;;;;;;;4.60;3.50;;;;;;;25.06;83.87;101243.37;105657;1252;69059;-61
2023/08/21 09:02:30;;;;;;;6.40;3.50;;;;;;;25.10;82.99;101247.61;105642;1254;74888;-60
2023/08/21 09:04:58;;;;;;;4.60;3.30;;;;;;;25.20;83.09;101245.90;105548;1257;83435;-62
2023/08/21 09:07:25;;;;;;;6.40;3.50;;;;;;;25.36;82.73;101238.13;105588;1256;73384;-62
2023/08/21 09:09:52;;;;;;;5.90;3.30;;;;;;;25.44;81.98;101237.60;105554;1252;69030;-62
2023/08/21 09:12:20;;;;;;;5.50;3.30;;;;;;;25.51;81.31;101236.98;105579;1256;69181;-62
2023/08/21 09:14:47;;;;;;;4.80;3.20;;;;;;;25.63;81.01;101236.29;105636;1254;74906;-62
2023/08/21 09:17:15;;;;;;;5.90;3.00;;;;;;;25.71;80.10;101236.70;105671;1257;83248;-63
2023/08/21 09:19:43;;;;;;;6.40;3.70;;;;;;;25.78;79.35;101234.11;105620;1257;72598;-61
2023/08/21 09:22:12;;;;;;;4.90;3.70;;;;;;;25.84;79.04;101232.89;105531;1254;69070;-65
2023/08/21 09:24:40;;;;;;;4.20;3.40;;;;;;;25.90;78.58;101230.17;105635;1255;69230;-65
2023/08/21 09:27:15;;;;;;;7.40;3.30;;;;;;;25.94;78.14;101232.68;105684;1255;73777;-65
2023/08/21 09:29:42;;;;;;;4.60;3.40;;;;;;;25.96;77.75;101232.38;105609;1255;83307;-66
2023/08/21 09:32:09;;;;;;;4.50;3.10;;;;;;;25.95;77.37;101229.75;105528;1257;72515;-65
2023/08/21 09:34:36;;;;;;;3.80;3.20;;;;;;;26.00;77.10;101234.31;105556;1253;69090;-65
2023/08/21 09:37:06;;;;;;;3.90;3.50;;;;;;;26.11;76.90;101235.16;105642;1257;70373;-65
2023/08/21 09:39:37;;;;;;;6.30;3.30;;;;;;;26.20;76.05;101230.44;105655;1256;73794;-65
2023/08/21 09:42:07;;;;;;;3.70;3.10;;;;;;;26.23;75.64;101227.63;105578;1254;83314;-65
2023/08/21 09:44:39;;;;;;;5.80;3.10;;;;;;;26.31;75.24;101225.31;105577;1255;73696;-65
2023/08/21 09:47:12;;;;;;;4.70;3.60;;;;;;;26.40;75.37;101226.09;105587;1255;69126;-65
2023/08/21 09:49:39;;;;;;;6.00;3.50;;;;;;;26.44;74.85;101219.92;105587;1253;69183;-65
2023/08/21 09:52:10;;;;;;;6.60;3.20;;;;;;;26.54;74.68;101217.12;105550;1254;73657;-65
2023/08/21 09:54:38;;;;;;;6.80;3.20;;;;;;;26.72;74.34;101217.65;105613;1256;83367;-65
2023/08/21 09:57:05;;;;;;;4.40;2.90;;;;;;;26.94;74.24;101215.42;105548;1256;72921;-65
2023/08/21 09:59:32;;;;;;;5.70;3.20;;;;;;;27.07;73.76;101214.86;105510;1257;70779;-65
2023/08/21 10:02:03;;;;;;;4.40;3.00;;;;;;;27.22;73.43;101212.80;105573;1255;69134;-65
2023/08/21 10:04:32;;;;;;;7.00;3.00;;;;;;;27.43;72.74;101212.20;105577;1257;74920;-66
2023/08/21 10:07:00;;;;;;;6.60;2.70;;;;;;;27.51;71.16;101209.61;105520;1255;83447;-64
2023/08/21 10:09:28;;;;;;;6.10;2.90;;;;;;;27.45;70.22;101201.75;105516;1254;73718;-64
2023/08/21 10:11:56;;;;;;;5.60;2.60;;;;;;;27.47;69.90;101202.74;105575;1257;69774;-65
2023/08/21 10:14:26;;;;;;;3.70;2.70;;;;;;;27.69;69.75;101199.02;105557;1256;69124;-65
2023/08/21 10:16:53;;;;;;;4.90;2.40;;;;;;;27.99;69.13;101198.45;105534;1255;74116;-65
2023/08/21 10:19:20;;;;;;;4.80;2.50;;;;;;;28.26;68.77;101199.30;105547;1254;83723;-65
2023/08/21 10:21:51;;;;;;;3.40;2.40;;;;;;;28.49;67.89;101196.34;105453;1254;73577;-65
2023/08/21 10:24:28;;;;;;;4.40;2.30;;;;;;;28.67;66.96;101193.23;105510;1257;69192;-65
2023/08/21 10:26:58;;;;;;;3.90;2.50;;;;;;;28.86;66.42;101192.98;105460;1254;69165;-66
2023/08/21 10:29:26;;;;;;;5.40;2.60;;;;;;;29.06;66.07;101195.62;105486;1254;74712;-66
2023/08/21 10:32:03;;;;;;;4.50;2.50;;;;;;;29.28;65.28;101190.05;105536;1253;82849;-66
2023/08/21 10:34:33;;;;;;;3.80;2.30;;;;;;;29.46;64.35;101188.18;105484;1257;73904;-66
2023/08/21 10:36:59;;;;;;;3.00;2.20;;;;;;;29.59;64.21;101192.63;105502;1256;69195;-66
2023/08/21 10:39:31;;;;;;;2.50;2.10;;;;;;;29.84;63.86;101192.33;105523;1256;69102;-65
2023/08/21 10:42:01;;;;;;;2.90;2.10;;;;;;;30.01;63.22;101189.80;105504;1254;73711;-66
2023/08/21 10:44:51;;;;;;;4.20;2.40;;;;;;;30.25;62.84;101187.92;105522;1254;83874;-66
2023/08/21 10:47:27;;;;;;;2.70;2.20;;;;;;;30.50;61.82;101185.27;105521;1256;73818;-66
2023/08/21 10:49:58;;;;;;;3.60;1.90;;;;;;;30.71;61.06;101182.52;105452;1254;69201;-67
2023/08/21 10:52:39;;;;;;;6.20;2.40;;;;;;;30.84;60.49;101182.79;105507;1254;69087;-67
2023/08/21 10:55:09;;;;;;;2.50;1.70;;;;;;;30.99;59.74;101182.77;105524;1257;74869;-67
2023/08/21 10:57:36;;;;;;;4.10;1.80;;;;;;;31.15;59.23;101182.34;105548;1257;83364;-67
2023/08/21 11:00:09;;;;;;;2.20;1.60;;;;;;;31.31;58.38;101178.75;105597;1256;73643;-67
2023/08/21 11:02:37;;;;;;;2.70;2.00;;;;;;;31.56;57.99;101181.54;105496;1257;69119;-67
2023/08/21 11:05:05;;;;;;;;;;;;;;;31.75;57.34;101177.02;105583;1253;69233;-68
2023/08/21 11:07:39;;;;;;;3.30;1.70;;;;;;;31.84;56.25;101171.65;105537;1254;75088;-66
2023/08/21 11:10:10;;;;;;;2.10;1.50;;;;;;;31.98;55.97;101170.48;105544;1254;83641;-67
2023/08/21 11:12:48;;;;;;;4.80;1.70;;;;;;;32.04;55.41;101168.31;105537;1254;73661;-67
2023/08/21 11:15:17;;;;;;;4.10;1.90;;;;;;;32.05;54.82;101167.98;105501;1254;69192;-67